Time;durP1;ratioP1;P1;durP2;ratioP2;P2;SDS_P1;SDS_P2;PMS_P1;PMS_P2;Temp;Humidity;BMP_temperature;BMP_pressure;BME280_temperature;BME280_humidity;BME280_pressure;Samples;Min_cycle;Max_cycle;Signal;HPM_P1;HPM_P2
2023/05/04 00:00:37;;;;;;;10.90;6.95;;;;;;;9.05;100.00;102447.78;5053459;28;20032;-58
2023/05/04 00:03:02;;;;;;;12.32;7.65;;;;;;;8.93;100.00;102442.53;5067370;28;20013;-57
2023/05/04 00:05:27;;;;;;;9.02;7.13;;;;;;;8.92;100.00;102446.03;5066922;28;20032;-53
2023/05/04 00:07:53;;;;;;;11.45;7.35;;;;;;;8.92;100.00;102435.53;5066713;28;20024;-55
2023/05/04 00:10:18;;;;;;;9.52;6.80;;;;;;;8.84;100.00;102428.53;5065962;28;20033;-59
2023/05/04 00:12:45;;;;;;;11.80;7.50;;;;;;;8.84;100.00;102433.78;5066288;28;20025;-57
2023/05/04 00:15:10;;;;;;;12.52;7.13;;;;;;;8.80;100.00;102429.41;5066453;28;20027;-56
2023/05/04 00:17:35;;;;;;;12.02;7.22;;;;;;;8.80;100.00;102429.41;5056234;28;20017;-56
2023/05/04 00:20:01;;;;;;;8.57;6.95;;;;;;;8.77;100.00;102432.03;5049146;28;20028;-57
2023/05/04 00:22:27;;;;;;;10.82;6.80;;;;;;;8.79;100.00;102419.75;5067369;28;20091;-56
2023/05/04 00:24:52;;;;;;;11.85;7.53;;;;;;;8.72;100.00;102423.25;5066799;28;20507;-56
2023/05/04 00:27:17;;;;;;;18.45;9.10;;;;;;;8.75;100.00;102423.25;5060352;28;20029;-56
2023/05/04 00:29:43;;;;;;;13.32;7.78;;;;;;;8.57;100.00;102422.41;5046843;28;20040;-59
2023/05/04 00:32:09;;;;;;;10.20;7.28;;;;;;;8.63;100.00;102428.50;5046603;28;20033;-58
2023/05/04 00:34:34;;;;;;;8.82;7.80;;;;;;;8.68;100.00;102426.78;5047251;28;20020;-57
2023/05/04 00:37:00;;;;;;;13.98;7.53;;;;;;;8.66;100.00;102428.53;5046327;28;20083;-56
2023/05/04 00:39:25;;;;;;;15.57;7.68;;;;;;;8.57;100.00;102427.66;5046107;28;20021;-57
2023/05/04 00:41:51;;;;;;;12.25;8.30;;;;;;;8.45;100.00;102428.50;5046434;28;20029;-57
2023/05/04 00:44:16;;;;;;;14.85;8.63;;;;;;;8.40;100.00;102422.34;5048192;28;20107;-54
2023/05/04 00:46:41;;;;;;;12.73;8.32;;;;;;;8.39;100.00;102422.34;5066704;28;20047;-57
2023/05/04 00:49:07;;;;;;;9.80;7.80;;;;;;;8.40;100.00;102416.25;5065885;28;20043;-59
2023/05/04 00:51:33;;;;;;;18.38;8.60;;;;;;;8.38;100.00;102415.34;5067051;28;20032;-58
2023/05/04 00:53:58;;;;;;;12.52;8.13;;;;;;;8.40;100.00;102411.84;5065608;28;20032;-55
2023/05/04 00:56:25;;;;;;;13.85;8.57;;;;;;;8.26;100.00;102411.84;5058811;28;20406;-59
2023/05/04 00:58:54;;;;;;;12.30;8.15;;;;;;;8.33;100.00;102405.72;5046045;28;20402;-56
2023/05/04 01:01:22;;;;;;;;;;;;;;;8.40;100.00;102405.72;5045678;28;20040;-57
2023/05/04 01:03:48;;;;;;;12.07;8.48;;;;;;;8.25;100.00;102402.19;5047072;28;19912;-58
2023/05/04 01:06:36;;;;;;;11.82;8.00;;;;;;;8.29;100.00;102400.47;5109653;22;20065;-59
2023/05/04 01:09:05;;;;;;;11.27;8.27;;;;;;;8.22;100.00;102396.97;5026057;28;20025;-54
2023/05/04 01:11:39;;;;;;;10.93;8.25;;;;;;;8.30;100.00;102395.22;5025968;28;20033;-61
2023/05/04 01:14:05;;;;;;;12.30;8.43;;;;;;;8.23;100.00;102385.59;5026368;28;20025;-56
2023/05/04 01:16:31;;;;;;;13.00;8.23;;;;;;;8.29;100.00;102389.97;5024452;28;20348;-59
2023/05/04 01:18:56;;;;;;;12.05;8.20;;;;;;;8.27;100.00;102389.94;5026586;28;20022;-60
2023/05/04 01:21:22;;;;;;;14.23;8.85;;;;;;;8.20;100.00;102377.69;5025759;28;20022;-55
2023/05/04 01:23:47;;;;;;;15.70;8.73;;;;;;;8.29;100.00;102374.19;5029121;28;20380;-56
2023/05/04 01:26:28;;;;;;;10.95;8.35;;;;;;;8.17;100.00;102370.69;5030095;28;20647;-57
2023/05/04 01:29:34;;;;;;;10.32;8.60;;;;;;;8.19;100.00;102374.19;5028994;28;20378;-56
2023/05/04 01:32:01;;;;;;;13.55;8.77;;;;;;;8.15;100.00;102368.94;5030247;28;20171;-57
2023/05/04 01:34:27;;;;;;;12.18;9.20;;;;;;;8.19;100.00;102370.69;5028498;28;20083;-57
2023/05/04 01:36:52;;;;;;;13.73;8.82;;;;;;;8.17;100.00;102375.06;5030387;28;20025;-56
2023/05/04 01:39:18;;;;;;;17.02;9.13;;;;;;;8.20;100.00;102362.84;5027807;28;20060;-54
2023/05/04 01:41:43;;;;;;;11.90;9.10;;;;;;;8.13;100.00;102357.56;5029468;28;20083;-54
2023/05/04 01:44:08;;;;;;;12.55;8.90;;;;;;;8.08;100.00;102368.94;5029818;28;20076;-57
2023/05/04 01:46:34;;;;;;;15.05;9.07;;;;;;;8.12;100.00;102355.81;5028883;28;20502;-54
2023/05/04 01:48:59;;;;;;;13.38;8.77;;;;;;;8.15;100.00;102359.31;5029895;28;20021;-57
2023/05/04 01:51:25;;;;;;;15.65;9.50;;;;;;;8.05;100.00;102357.56;5044406;28;20477;-56
2023/05/04 01:53:50;;;;;;;17.05;9.77;;;;;;;8.00;100.00;102360.16;5013800;28;20053;-55
2023/05/04 01:56:15;;;;;;;11.65;9.27;;;;;;;7.98;100.00;102361.94;5028568;28;20033;-58
2023/05/04 01:58:41;;;;;;;11.15;9.07;;;;;;;8.04;100.00;102359.28;5027602;28;20049;-57
2023/05/04 02:01:06;;;;;;;22.05;9.05;;;;;;;8.01;100.00;102361.91;5018176;28;20026;-56
2023/05/04 02:03:32;;;;;;;11.10;8.80;;;;;;;7.94;100.00;102355.78;5019370;28;20018;-58
2023/05/04 02:05:57;;;;;;;11.55;8.75;;;;;;;7.89;100.00;102357.50;5028260;28;20049;-57
2023/05/04 02:08:22;;;;;;;10.85;8.50;;;;;;;7.93;100.00;102353.16;5028799;28;20021;-57
2023/05/04 02:10:48;;;;;;;16.25;9.18;;;;;;;7.95;100.00;102352.28;5027905;28;20025;-58
2023/05/04 02:13:13;;;;;;;12.70;8.60;;;;;;;8.01;100.00;102356.66;5028360;28;20049;-57
2023/05/04 02:15:38;;;;;;;17.55;8.75;;;;;;;8.00;100.00;102347.03;5028678;28;20025;-57
2023/05/04 02:18:04;;;;;;;12.80;9.05;;;;;;;7.96;100.00;102348.81;5043633;28;20109;-56
2023/05/04 02:20:29;;;;;;;11.38;8.65;;;;;;;8.01;100.00;102347.94;5023022;28;20399;-58
2023/05/04 02:22:54;;;;;;;14.43;8.73;;;;;;;7.81;100.00;102343.50;5008963;28;20097;-56
2023/05/04 02:25:20;;;;;;;12.48;8.13;;;;;;;7.84;100.00;102344.41;5008382;28;20041;-57
2023/05/04 02:27:45;;;;;;;15.18;8.95;;;;;;;7.80;100.00;102337.38;5009348;28;20037;-55
2023/05/04 02:30:11;;;;;;;13.95;9.38;;;;;;;7.76;100.00;102332.13;5008567;28;20337;-51
2023/05/04 02:32:37;;;;;;;21.88;9.15;;;;;;;7.79;100.00;102332.13;5011228;28;20037;-58
2023/05/04 02:35:02;;;;;;;16.83;8.52;;;;;;;7.82;100.00;102330.41;5028265;28;20076;-54
2023/05/04 02:37:27;;;;;;;15.68;9.25;;;;;;;7.82;100.00;102335.66;5029070;28;20101;-60
2023/05/04 02:39:53;;;;;;;16.73;8.25;;;;;;;7.78;100.00;102333.91;5029369;28;20022;-51
2023/05/04 02:42:18;;;;;;;15.95;8.80;;;;;;;7.86;100.00;102336.53;5027642;28;20486;-56
2023/05/04 02:44:43;;;;;;;13.57;8.88;;;;;;;7.85;100.00;102334.75;5025635;28;20037;-56
2023/05/04 02:47:09;;;;;;;11.43;8.25;;;;;;;7.84;100.00;102327.78;5027024;28;20033;-56
2023/05/04 02:49:34;;;;;;;18.95;8.65;;;;;;;7.84;100.00;102331.28;5028098;28;20690;-55
2023/05/04 02:52:00;;;;;;;16.77;9.05;;;;;;;7.79;100.00;102324.25;5028289;28;20087;-57
2023/05/04 02:54:25;;;;;;;10.15;8.43;;;;;;;7.76;100.00;102326.88;5008462;28;20029;-56
2023/05/04 02:56:50;;;;;;;12.02;8.25;;;;;;;7.75;100.00;102325.13;5008021;28;20049;-56
2023/05/04 02:59:15;;;;;;;9.77;8.77;;;;;;;7.73;100.00;102317.25;5007404;28;20030;-57
2023/05/04 03:01:41;;;;;;;12.73;8.57;;;;;;;7.67;100.00;102314.59;5007862;28;20060;-57
2023/05/04 03:04:06;;;;;;;15.68;9.10;;;;;;;7.61;100.00;102312.84;5007035;28;20018;-60
2023/05/04 03:06:32;;;;;;;17.23;8.77;;;;;;;7.65;100.00;102311.97;5027594;28;20093;-56
2023/05/04 03:08:58;;;;;;;14.20;8.65;;;;;;;7.62;100.00;102319.00;5027921;28;20040;-55
2023/05/04 03:11:23;;;;;;;15.73;9.82;;;;;;;7.56;100.00;102315.47;5026612;28;20029;-57
2023/05/04 03:13:48;;;;;;;17.58;9.02;;;;;;;7.56;100.00;102311.97;5027771;28;20132;-54
2023/05/04 03:16:14;;;;;;;12.23;8.80;;;;;;;7.52;100.00;102320.69;5025445;28;20498;-55
2023/05/04 03:18:39;;;;;;;16.52;9.20;;;;;;;7.45;100.00;102315.47;5028234;28;20384;-56
2023/05/04 03:21:05;;;;;;;10.10;8.63;;;;;;;7.28;100.00;102312.75;5025800;28;20132;-58
2023/05/04 03:23:30;;;;;;;15.20;8.95;;;;;;;7.35;100.00;102315.41;5027213;28;20295;-61
2023/05/04 03:25:55;;;;;;;14.52;9.05;;;;;;;7.38;100.00;102302.31;5028290;28;20108;-55
2023/05/04 03:28:21;;;;;;;14.95;9.00;;;;;;;7.35;100.00;102307.53;5026476;28;20160;-57
2023/05/04 03:30:46;;;;;;;13.43;8.35;;;;;;;7.35;100.00;102297.06;5027152;28;20091;-57
2023/05/04 03:33:12;;;;;;;14.45;8.70;;;;;;;7.27;100.00;102303.16;5026931;28;20022;-56
2023/05/04 03:35:37;;;;;;;13.48;8.50;;;;;;;7.29;100.00;102304.00;5028092;28;20033;-55
2023/05/04 03:38:02;;;;;;;12.55;8.57;;;;;;;7.37;100.00;102311.91;5027864;28;20105;-54
2023/05/04 03:40:28;;;;;;;18.08;8.98;;;;;;;7.28;100.00;102307.53;5027101;28;20034;-59
2023/05/04 03:42:53;;;;;;;15.40;8.68;;;;;;;7.28;100.00;102310.13;5027406;28;20055;-53
2023/05/04 03:45:18;;;;;;;13.82;9.00;;;;;;;7.37;100.00;102311.06;5026299;28;20100;-55
2023/05/04 03:47:44;;;;;;;15.57;8.77;;;;;;;7.23;100.00;102308.38;5027768;28;20025;-59
2023/05/04 03:50:10;;;;;;;14.45;8.85;;;;;;;7.12;100.00;102314.44;5043964;28;20025;-53
2023/05/04 03:52:35;;;;;;;15.93;8.48;;;;;;;7.02;100.00;102305.69;5046743;28;20021;-55
2023/05/04 03:55:00;;;;;;;14.27;9.18;;;;;;;7.08;100.00;102304.84;5046528;28;20048;-57
2023/05/04 03:57:26;;;;;;;18.00;8.88;;;;;;;7.08;100.00;102303.06;5047552;28;20024;-54
2023/05/04 03:59:51;;;;;;;15.68;9.02;;;;;;;7.12;100.00;102296.09;5045921;28;20178;-56
2023/05/04 04:02:16;;;;;;;19.20;8.25;;;;;;;7.02;100.00;102291.69;5027787;28;20068;-55
2023/05/04 04:04:42;;;;;;;12.65;8.43;;;;;;;6.96;100.00;102284.69;5026873;28;20030;-57
2023/05/04 04:07:07;;;;;;;14.32;9.70;;;;;;;6.96;100.00;102276.81;5025401;28;20045;-55
2023/05/04 04:09:32;;;;;;;11.65;8.60;;;;;;;6.92;100.00;102282.91;5026400;28;20151;-57
2023/05/04 04:11:58;;;;;;;11.65;9.00;;;;;;;7.05;100.00;102276.84;5026230;28;20048;-55
2023/05/04 04:14:23;;;;;;;13.57;8.90;;;;;;;6.97;100.00;102277.69;5025855;28;20033;-57
2023/05/04 04:16:49;;;;;;;15.82;9.45;;;;;;;7.06;100.00;102275.09;5020771;28;20480;-55
2023/05/04 04:19:14;;;;;;;12.95;8.70;;;;;;;7.11;100.00;102283.88;5014999;28;20022;-51
2023/05/04 04:21:39;;;;;;;13.40;9.05;;;;;;;7.04;100.00;102276.84;5023181;28;20475;-55
2023/05/04 04:24:05;;;;;;;10.90;9.02;;;;;;;6.95;100.00;102273.31;5024707;28;20109;-54
2023/05/04 04:26:30;;;;;;;17.08;9.18;;;;;;;6.94;100.00;102270.69;5026751;28;20108;-55
2023/05/04 04:28:55;;;;;;;17.38;9.02;;;;;;;7.00;100.00;102270.72;5016548;28;20041;-56
2023/05/04 04:31:21;;;;;;;13.45;9.35;;;;;;;7.01;100.00;102272.47;5021903;28;20065;-55
2023/05/04 04:33:48;;;;;;;19.00;8.80;;;;;;;7.06;100.00;102265.50;5026347;28;20041;-55
2023/05/04 04:36:17;;;;;;;15.38;7.95;;;;;;;7.08;100.00;102260.28;5026440;28;20029;-54
2023/05/04 04:38:42;;;;;;;14.85;8.57;;;;;;;6.98;100.00;102261.97;5026386;28;20499;-57
2023/05/04 04:41:08;;;;;;;13.73;8.23;;;;;;;7.12;100.00;102267.28;5026245;28;20055;-57
2023/05/04 04:43:33;;;;;;;11.10;8.20;;;;;;;7.06;100.00;102257.66;5025344;28;20625;-55
2023/05/04 04:45:58;;;;;;;14.90;8.43;;;;;;;7.16;100.00;102255.91;5024730;28;20474;-58
2023/05/04 04:48:24;;;;;;;12.27;8.13;;;;;;;7.13;100.00;102255.03;5025907;28;20045;-56
2023/05/04 04:50:50;;;;;;;10.85;7.78;;;;;;;7.18;100.00;102253.31;5026136;28;20099;-58
2023/05/04 04:53:16;;;;;;;12.63;7.97;;;;;;;7.18;100.00;102255.91;5024867;28;20685;-58
2023/05/04 04:55:41;;;;;;;13.60;8.25;;;;;;;7.13;100.00;102258.53;5026918;28;20025;-58
2023/05/04 04:58:08;;;;;;;14.55;8.20;;;;;;;7.29;100.00;102256.81;5028588;28;20030;-56
2023/05/04 05:00:34;;;;;;;15.90;7.97;;;;;;;7.38;100.00;102255.09;5031033;28;20501;-58
2023/05/04 05:03:00;;;;;;;11.63;7.90;;;;;;;7.29;100.00;102255.97;5050339;28;20021;-57
2023/05/04 05:05:25;;;;;;;13.38;8.02;;;;;;;7.42;100.00;102256.84;5049116;28;20079;-59
2023/05/04 05:07:51;;;;;;;11.77;7.93;;;;;;;7.41;100.00;102255.13;5049843;28;20033;-56
2023/05/04 05:10:16;;;;;;;12.40;7.93;;;;;;;7.45;100.00;102255.13;5048839;28;20025;-57
2023/05/04 05:12:41;;;;;;;13.77;7.47;;;;;;;7.49;100.00;102256.00;5039746;28;20033;-55
2023/05/04 05:15:07;;;;;;;15.43;8.43;;;;;;;7.53;100.00;102260.38;5028439;28;20109;-55
2023/05/04 05:17:34;;;;;;;11.57;7.30;;;;;;;7.64;100.00;102260.41;5022564;28;20061;-58
2023/05/04 05:20:00;;;;;;;12.25;7.10;;;;;;;7.65;100.00;102256.88;5009924;28;20026;-58
2023/05/04 05:22:25;;;;;;;11.02;7.15;;;;;;;7.70;100.00;102259.53;5012086;28;20112;-58
2023/05/04 05:24:50;;;;;;;12.85;7.72;;;;;;;7.69;100.00;102258.66;5030151;28;20060;-56
2023/05/04 05:27:16;;;;;;;13.18;7.72;;;;;;;7.67;100.00;102255.16;5028703;28;20041;-58
2023/05/04 05:29:42;;;;;;;12.88;7.68;;;;;;;7.72;100.00;102249.91;5028192;28;20018;-57
2023/05/04 05:32:07;;;;;;;11.43;7.45;;;;;;;7.88;100.00;102253.41;5028996;28;20451;-58
2023/05/04 05:34:33;;;;;;;17.35;7.70;;;;;;;7.92;100.00;102252.53;5027583;28;20079;-58
2023/05/04 05:36:58;;;;;;;14.88;8.20;;;;;;;7.84;100.00;102254.28;5028995;28;20098;-57
2023/05/04 05:39:23;;;;;;;13.02;8.10;;;;;;;8.00;100.00;102249.06;5027647;28;20100;-51
2023/05/04 05:41:49;;;;;;;12.05;8.02;;;;;;;8.05;100.00;102242.03;5028555;28;20082;-59
2023/05/04 05:44:14;;;;;;;11.35;7.93;;;;;;;8.18;100.00;102245.53;5026589;28;20033;-58
2023/05/04 05:46:40;;;;;;;9.43;7.15;;;;;;;8.09;100.00;102243.78;5026243;28;20452;-55
2023/05/04 05:49:06;;;;;;;14.15;7.75;;;;;;;8.11;100.00;102246.41;5026727;28;20025;-57
2023/05/04 05:51:31;;;;;;;10.13;8.27;;;;;;;8.17;100.00;102252.53;5026536;28;20036;-57
2023/05/04 05:53:57;;;;;;;11.98;7.50;;;;;;;8.22;100.00;102245.53;5027309;28;20041;-57
2023/05/04 05:56:22;;;;;;;14.70;8.20;;;;;;;8.31;100.00;102251.66;5026214;28;20497;-56
2023/05/04 05:58:50;;;;;;;13.40;7.47;;;;;;;8.34;100.00;102244.63;5026833;28;20041;-56
2023/05/04 06:01:15;;;;;;;11.70;7.68;;;;;;;8.41;100.00;102252.50;5025844;28;20071;-56
2023/05/04 06:03:40;;;;;;;19.30;7.72;;;;;;;8.43;100.00;102245.50;5025867;28;20061;-56
2023/05/04 06:06:06;;;;;;;12.57;7.80;;;;;;;8.52;100.00;102237.56;5025511;28;20045;-56
2023/05/04 06:08:32;;;;;;;10.48;7.45;;;;;;;8.57;100.00;102235.84;5025290;28;20021;-54
2023/05/04 06:10:57;;;;;;;14.95;7.47;;;;;;;8.67;100.00;102234.06;5029455;28;20032;-54
2023/05/04 06:13:22;;;;;;;10.95;7.68;;;;;;;8.77;100.00;102242.81;5027822;28;20071;-57
2023/05/04 06:15:52;;;;;;;15.20;8.70;;;;;;;8.82;100.00;102229.66;5026666;28;20071;-58
2023/05/04 06:18:18;;;;;;;14.07;8.00;;;;;;;8.87;100.00;102237.50;5026786;28;20040;-58
2023/05/04 06:20:43;;;;;;;12.27;7.72;;;;;;;9.01;100.00;102232.19;5026103;28;20036;-54
2023/05/04 06:23:09;;;;;;;17.63;8.13;;;;;;;9.01;100.00;102235.69;5024913;28;20360;-56
2023/05/04 06:25:34;;;;;;;11.30;7.22;;;;;;;9.05;100.00;102237.41;5025920;28;20476;-54
2023/05/04 06:27:59;;;;;;;11.15;7.93;;;;;;;9.38;100.00;102228.47;5025179;28;20032;-52
2023/05/04 06:30:25;;;;;;;14.75;7.03;;;;;;;9.44;100.00;102238.94;5025240;28;20614;-57
2023/05/04 06:32:50;;;;;;;11.13;7.38;;;;;;;9.50;100.00;102230.13;5026319;28;20026;-54
2023/05/04 06:35:16;;;;;;;18.08;8.05;;;;;;;9.69;100.00;102230.91;5026663;28;20036;-57
2023/05/04 06:37:42;;;;;;;10.63;7.72;;;;;;;9.69;100.00;102230.91;5026145;28;20025;-57
2023/05/04 06:40:08;;;;;;;15.20;7.15;;;;;;;9.98;100.00;102224.50;5023616;28;20482;-54
2023/05/04 06:42:33;;;;;;;13.70;7.82;;;;;;;9.98;100.00;102227.13;5026308;28;20229;-55
2023/05/04 06:44:58;;;;;;;10.88;7.35;;;;;;;9.76;100.00;102234.34;5025797;28;20017;-54
2023/05/04 06:47:24;;;;;;;9.63;7.40;;;;;;;9.88;100.00;102228.09;5026793;28;20036;-56
2023/05/04 06:49:49;;;;;;;12.65;7.22;;;;;;;10.03;100.00;102221.81;5025755;28;20029;-56
2023/05/04 06:52:14;;;;;;;16.48;7.85;;;;;;;10.34;100.00;102222.41;5026039;28;20463;-55
2023/05/04 06:54:40;;;;;;;10.50;7.25;;;;;;;10.43;100.00;102210.00;5026145;28;20084;-53
2023/05/04 06:57:05;;;;;;;12.93;7.63;;;;;;;10.69;100.00;102207.06;5026456;28;20053;-54
2023/05/04 06:59:30;;;;;;;11.05;7.28;;;;;;;10.85;100.00;102210.41;5025578;28;20042;-60
2023/05/04 07:01:56;;;;;;;12.57;6.93;;;;;;;11.04;100.00;102207.50;5023807;28;20036;-54
2023/05/04 07:04:22;;;;;;;11.00;7.13;;;;;;;10.96;100.00;102199.69;5006064;28;20080;-58
2023/05/04 07:06:51;;;;;;;9.63;6.82;;;;;;;11.15;100.00;102193.28;5005457;28;20041;-54
2023/05/04 07:09:17;;;;;;;17.30;7.20;;;;;;;11.15;100.00;102195.94;5006863;28;20462;-56
2023/05/04 07:11:43;;;;;;;11.18;6.95;;;;;;;11.36;100.00;102190.34;5006704;28;20060;-55
2023/05/04 07:14:08;;;;;;;11.43;6.78;;;;;;;11.46;100.00;102195.47;5007224;28;20061;-55
2023/05/04 07:16:37;;;;;;;17.80;7.20;;;;;;;11.48;100.00;102184.00;5026096;28;20105;-56
2023/05/04 07:19:03;;;;;;;11.75;6.88;;;;;;;11.78;100.00;102182.63;5025361;28;20021;-56
2023/05/04 07:21:28;;;;;;;12.35;7.50;;;;;;;11.60;100.00;102180.28;5026736;28;20026;-55
2023/05/04 07:23:54;;;;;;;9.23;6.78;;;;;;;11.56;100.00;102180.38;5026384;28;20041;-57
2023/05/04 07:26:21;;;;;;;13.35;7.25;;;;;;;11.71;100.00;102176.59;5023199;28;20172;-56
2023/05/04 07:28:46;;;;;;;13.25;7.38;;;;;;;11.88;100.00;102179.81;5023269;28;20033;-58
2023/05/04 07:31:13;;;;;;;10.93;7.28;;;;;;;12.18;100.00;102176.66;5025094;28;20033;-58
2023/05/04 07:33:38;;;;;;;9.73;6.82;;;;;;;12.06;100.00;102171.56;5025759;28;20035;-58
2023/05/04 07:36:04;;;;;;;11.65;6.93;;;;;;;12.12;99.66;102172.38;5025999;28;20017;-53
2023/05/04 07:38:30;;;;;;;10.98;6.18;;;;;;;12.19;100.00;102167.81;5023643;28;20022;-57
2023/05/04 07:40:55;;;;;;;10.15;6.53;;;;;;;12.50;100.00;102171.63;5006453;28;20121;-56
2023/05/04 07:43:21;;;;;;;12.02;6.22;;;;;;;12.58;99.17;102168.84;5005610;28;20446;-56
2023/05/04 07:45:47;;;;;;;11.70;6.45;;;;;;;12.62;97.40;102168.72;5004847;28;20036;-60
2023/05/04 07:48:12;;;;;;;9.77;6.68;;;;;;;12.86;97.63;102161.16;5025648;28;20041;-55
2023/05/04 07:50:38;;;;;;;12.32;6.32;;;;;;;13.00;96.63;102165.25;5024302;28;20032;-58
2023/05/04 07:53:03;;;;;;;10.18;6.43;;;;;;;12.55;96.40;102163.59;5024884;28;20025;-55
2023/05/04 07:55:29;;;;;;;9.32;6.38;;;;;;;12.62;97.64;102160.78;5024160;28;20053;-57
2023/05/04 07:57:55;;;;;;;11.05;6.70;;;;;;;12.92;96.47;102143.41;5025991;28;20101;-58
2023/05/04 08:00:20;;;;;;;9.50;5.78;;;;;;;13.04;96.24;102139.59;5023193;28;20075;-57
2023/05/04 08:02:46;;;;;;;11.63;6.35;;;;;;;13.18;94.11;102139.28;5026184;28;20113;-57
2023/05/04 08:05:11;;;;;;;10.13;6.40;;;;;;;13.35;94.13;102133.56;5025669;28;20022;-57
2023/05/04 08:07:36;;;;;;;14.88;6.47;;;;;;;13.29;95.18;102133.72;5025338;28;20080;-56
2023/05/04 08:10:02;;;;;;;8.50;6.38;;;;;;;13.58;93.83;102134.81;5025978;28;20387;-57
2023/05/04 08:12:28;;;;;;;9.10;6.75;;;;;;;13.76;92.64;102128.16;5025351;28;20486;-56
2023/05/04 08:14:53;;;;;;;8.52;6.25;;;;;;;13.26;94.01;102140.84;5026496;28;20031;-55
2023/05/04 08:17:18;;;;;;;13.15;6.20;;;;;;;13.20;94.11;102142.75;5024545;28;20029;-56
2023/05/04 08:19:43;;;;;;;11.70;6.78;;;;;;;13.45;94.43;102134.22;5011862;28;20036;-55
2023/05/04 08:22:09;;;;;;;12.80;6.60;;;;;;;13.54;94.08;102131.34;5005750;28;20054;-56
2023/05/04 08:24:35;;;;;;;12.93;6.68;;;;;;;13.60;93.26;102132.97;5004863;28;20022;-53
2023/05/04 08:27:01;;;;;;;9.75;5.95;;;;;;;13.77;92.50;102122.81;5005458;28;20506;-60
2023/05/04 08:29:26;;;;;;;9.45;5.45;;;;;;;13.86;92.94;102131.41;5003321;28;20034;-56
2023/05/04 08:31:54;;;;;;;8.98;6.00;;;;;;;13.86;93.71;102129.66;5018850;28;20025;-57
2023/05/04 08:34:20;;;;;;;13.23;6.63;;;;;;;13.43;95.52;102134.25;5027789;28;20120;-57
2023/05/04 08:36:45;;;;;;;8.00;5.95;;;;;;;13.72;94.15;102127.34;5027047;28;20522;-56
2023/05/04 08:39:11;;;;;;;7.95;6.15;;;;;;;13.86;92.66;102116.41;5027671;28;20051;-55
2023/05/04 08:41:40;;;;;;;13.27;6.72;;;;;;;13.78;93.32;102121.03;5027157;28;20057;-53
2023/05/04 08:44:10;;;;;;;10.07;5.72;;;;;;;13.95;92.94;102109.97;5026463;28;20036;-55
2023/05/04 08:46:36;;;;;;;10.93;6.55;;;;;;;14.20;92.41;102100.44;5029273;28;20357;-56
2023/05/04 08:49:02;;;;;;;11.00;6.55;;;;;;;14.02;93.34;102097.41;5028293;28;20132;-58
2023/05/04 08:51:28;;;;;;;10.05;6.05;;;;;;;14.38;92.41;102097.25;5031470;28;20107;-55
2023/05/04 08:53:54;;;;;;;14.75;6.72;;;;;;;14.50;89.87;102090.72;5032592;28;20471;-54
2023/05/04 08:56:21;;;;;;;10.35;6.20;;;;;;;14.54;91.22;102091.47;5029933;28;20124;-55
2023/05/04 08:58:48;;;;;;;8.85;5.85;;;;;;;14.66;89.83;102087.59;5029318;28;20414;-57
2023/05/04 09:01:15;;;;;;;8.80;5.65;;;;;;;14.86;88.94;102089.66;5029062;28;20024;-56
2023/05/04 09:03:42;;;;;;;11.10;6.22;;;;;;;14.84;88.62;102087.97;5029141;28;20026;-56
2023/05/04 09:06:07;;;;;;;10.10;6.45;;;;;;;14.77;90.23;102084.59;5025063;28;20088;-57
2023/05/04 09:08:33;;;;;;;11.07;6.25;;;;;;;14.89;91.09;102083.38;5006868;28;20499;-57
2023/05/04 09:10:59;;;;;;;13.85;6.43;;;;;;;15.02;89.29;102078.53;5008996;28;20357;-55
2023/05/04 09:13:24;;;;;;;9.35;5.90;;;;;;;15.17;87.58;102071.81;5023035;28;20026;-58
2023/05/04 09:15:57;;;;;;;9.30;5.82;;;;;;;15.25;87.60;102080.41;5016177;28;20551;-54
2023/05/04 09:18:23;;;;;;;9.27;5.78;;;;;;;15.26;87.06;102070.69;5027527;28;20029;-58
2023/05/04 09:20:48;;;;;;;6.63;5.80;;;;;;;15.40;87.90;102071.06;5028471;28;20095;-58
2023/05/04 09:23:15;;;;;;;14.27;5.47;;;;;;;15.50;87.20;102070.75;5028636;28;20049;-57
2023/05/04 09:25:54;;;;;;;12.15;5.78;;;;;;;15.60;87.48;102072.16;5028273;28;20027;-54
2023/05/04 09:28:21;;;;;;;10.05;6.20;;;;;;;15.25;87.55;102060.94;5026586;28;20495;-58
2023/05/04 09:30:47;;;;;;;9.57;6.00;;;;;;;15.60;87.13;102063.31;5028625;28;20033;-56
2023/05/04 09:33:14;;;;;;;12.63;5.88;;;;;;;15.89;87.58;102053.38;5027349;28;20033;-56
2023/05/04 09:35:41;;;;;;;10.43;5.93;;;;;;;15.80;86.28;102049.28;5028373;28;20022;-54
2023/05/04 09:38:07;;;;;;;9.07;5.60;;;;;;;15.90;86.61;102045.38;5027610;28;20120;-56
2023/05/04 09:40:37;;;;;;;11.25;5.65;;;;;;;16.21;86.38;102045.16;5025868;28;20172;-56
2023/05/04 09:43:03;;;;;;;6.60;5.18;;;;;;;16.37;85.32;102043.63;5027646;28;20101;-57
2023/05/04 09:45:42;;;;;;;13.20;5.30;;;;;;;16.36;84.05;102047.25;5025796;28;20491;-57
2023/05/04 09:48:17;;;;;;;11.23;5.72;;;;;;;16.21;83.23;102037.19;5027516;28;20036;-56
2023/05/04 09:50:51;;;;;;;9.90;5.63;;;;;;;16.17;84.39;102039.13;5014402;28;20636;-55
2023/05/04 09:53:19;;;;;;;9.60;5.93;;;;;;;16.52;82.42;102039.50;5008167;28;20026;-58
2023/05/04 09:55:46;;;;;;;9.18;5.85;;;;;;;16.61;83.60;102035.59;5005169;28;20032;-57
2023/05/04 09:58:15;;;;;;;11.57;5.78;;;;;;;16.64;83.24;102029.28;5007514;28;20076;-54
2023/05/04 10:00:41;;;;;;;7.00;5.25;;;;;;;16.75;83.99;102027.06;5007191;28;20064;-55
2023/05/04 10:03:06;;;;;;;8.05;4.70;;;;;;;16.98;83.25;102022.56;5020020;28;20025;-56
2023/05/04 10:05:32;;;;;;;9.25;5.38;;;;;;;17.00;80.52;102014.50;5026950;28;20514;-57
2023/05/04 10:08:00;;;;;;;12.20;4.88;;;;;;;17.25;81.21;102013.50;5042357;28;20061;-58
2023/05/04 10:10:26;;;;;;;10.45;5.30;;;;;;;17.33;83.10;102000.72;5043388;28;20033;-57
2023/05/04 10:12:51;;;;;;;9.45;5.35;;;;;;;17.09;81.49;101994.66;5026896;28;20021;-57
2023/05/04 10:15:19;;;;;;;11.52;5.57;;;;;;;17.33;79.84;101990.06;5026944;28;20128;-55
2023/05/04 10:18:10;;;;;;;9.53;5.37;;;;;;;17.56;79.09;101980.16;5028032;28;20053;-54
2023/05/04 10:20:50;;;;;;;7.70;4.97;;;;;;;17.92;79.21;101981.19;5043878;28;20731;-57
2023/05/04 10:23:41;;;;;;;8.52;5.47;;;;;;;17.93;78.21;101978.47;5010942;28;20030;-53
2023/05/04 10:26:46;;;;;;;9.18;5.45;;;;;;;18.33;76.59;101984.66;5007046;28;20049;-56
2023/05/04 10:29:19;;;;;;;8.43;5.30;;;;;;;18.06;76.38;101975.19;5012022;28;20395;-56
2023/05/04 10:31:45;;;;;;;10.27;5.28;;;;;;;18.17;77.57;101964.06;5041614;28;20037;-56
2023/05/04 10:34:10;;;;;;;7.22;4.78;;;;;;;18.02;76.92;101961.16;5026166;28;20040;-56
2023/05/04 10:36:40;;;;;;;6.43;5.05;;;;;;;17.97;75.98;101963.16;5024009;28;20034;-55
2023/05/04 10:39:19;;;;;;;7.50;5.07;;;;;;;18.57;73.19;101958.56;5026942;28;20410;-57
2023/05/04 10:42:02;;;;;;;;;;;;;;;18.75;73.70;101953.25;5027536;28;20041;-55
2023/05/04 10:44:28;;;;;;;8.30;4.90;;;;;;;19.06;73.38;101943.63;5024897;28;20003;-54
2023/05/04 10:47:00;;;;;;;11.40;5.43;;;;;;;19.31;73.29;101939.69;5025392;28;20195;-56
2023/05/04 10:49:26;;;;;;;9.52;5.22;;;;;;;19.45;69.21;101937.13;5026042;28;20026;-57
2023/05/04 10:52:11;;;;;;;26.88;5.90;;;;;;;19.08;67.90;101916.88;5026649;28;20056;-55
2023/05/04 10:54:38;;;;;;;7.85;5.32;;;;;;;18.82;68.13;101919.94;5024985;28;20034;-57
2023/05/04 10:57:05;;;;;;;13.82;5.80;;;;;;;18.94;68.78;101913.94;5017032;28;20402;-57
2023/05/04 10:59:31;;;;;;;7.15;5.35;;;;;;;19.05;69.24;101916.06;5027071;28;20617;-55
2023/05/04 11:01:57;;;;;;;9.13;5.18;;;;;;;19.54;70.57;101909.03;5026031;28;20033;-56
2023/05/04 11:04:23;;;;;;;9.00;5.20;;;;;;;19.74;67.74;101899.03;5027968;28;20047;-57
2023/05/04 11:07:03;;;;;;;10.55;4.68;;;;;;;20.08;67.59;101907.00;5027357;28;20124;-58
2023/05/04 11:09:40;;;;;;;10.82;5.55;;;;;;;19.98;65.63;101897.75;5025803;28;20061;-59
2023/05/04 11:12:09;;;;;;;6.93;5.50;;;;;;;19.61;66.11;101893.53;5027455;28;20580;-55
2023/05/04 11:14:41;;;;;;;11.38;5.53;;;;;;;20.10;65.73;101897.06;5026595;28;20129;-56
2023/05/04 11:17:09;;;;;;;7.43;4.80;;;;;;;20.40;64.45;101896.22;5028077;28;20029;-58